Time;durP1;ratioP1;P1;durP2;ratioP2;P2;SDS_P1;SDS_P2;PMS_P1;PMS_P2;Temp;Humidity;BMP_temperature;BMP_pressure;BME280_temperature;BME280_humidity;BME280_pressure;Samples;Min_cycle;Max_cycle;Signal;HPM_P1;HPM_P2
2023/05/06 00:05:49;;;;;;;6.32;1.65;;;;;;;;;;21003636;28;20040;-68
2023/05/06 00:15:50;;;;;;;3.05;0.75;;;;;;;;;;21003984;28;20063;-68
2023/05/06 00:25:53;;;;;;;11.75;1.40;;;;;;;;;;21002527;28;20127;-65
2023/05/06 00:35:54;;;;;;;3.00;0.93;;;;;;;;;;21001990;28;20079;-68
2023/05/06 00:45:55;;;;;;;5.30;1.17;;;;;;;;;;21001167;28;20159;-67
2023/05/06 00:55:57;;;;;;;6.63;1.10;;;;;;;;;;20999984;28;20440;-68
2023/05/06 01:06:04;;;;;;;3.00;0.90;;;;;;;;;;21000141;28;20040;-67
2023/05/06 01:16:07;;;;;;;7.20;1.40;;;;;;;;;;20998684;28;20544;-68
2023/05/06 01:26:08;;;;;;;8.30;1.20;;;;;;;;;;20997336;28;20044;-68
2023/05/06 01:36:15;;;;;;;6.93;1.00;;;;;;;;;;20998092;28;20049;-67
2023/05/06 01:46:20;;;;;;;9.30;1.13;;;;;;;;;;20997870;28;20049;-67
2023/05/06 01:56:21;;;;;;;4.82;1.25;;;;;;;;;;20996923;28;20115;-69
2023/05/06 02:06:22;;;;;;;5.20;1.85;;;;;;;;;;20995299;28;20083;-67
2023/05/06 02:16:26;;;;;;;6.15;1.67;;;;;;;;;;20994612;28;20071;-67
2023/05/06 02:26:27;;;;;;;3.20;0.95;;;;;;;;;;21005259;28;20559;-68
2023/05/06 02:36:29;;;;;;;4.15;0.85;;;;;;;;;;21010314;28;20055;-67
2023/05/06 02:46:30;;;;;;;4.25;0.82;;;;;;;;;;21009077;28;20044;-68
2023/05/06 02:56:31;;;;;;;4.68;0.75;;;;;;;;;;21009436;28;20163;-68
2023/05/06 03:06:32;;;;;;;3.67;0.82;;;;;;;;;;21008591;28;20482;-68
2023/05/06 03:16:33;;;;;;;2.47;0.65;;;;;;;;;;21008238;28;20048;-67
2023/05/06 03:26:34;;;;;;;9.25;0.90;;;;;;;;;;21007967;28;20486;-68
2023/05/06 03:36:35;;;;;;;3.03;0.85;;;;;;;;;;21006610;28;20127;-68
2023/05/06 03:46:37;;;;;;;4.25;0.98;;;;;;;;;;21004876;28;20055;-68
2023/05/06 03:56:38;;;;;;;2.80;1.10;;;;;;;;;;21005455;28;20052;-68
2023/05/06 04:06:40;;;;;;;2.90;0.88;;;;;;;;;;21006054;28;20102;-68
2023/05/06 04:16:41;;;;;;;3.45;1.05;;;;;;;;;;21005220;28;20060;-68
2023/05/06 04:26:42;;;;;;;4.53;1.33;;;;;;;;;;21003056;28;20049;-67
2023/05/06 04:36:43;;;;;;;2.03;0.80;;;;;;;;;;21003861;28;20052;-67
2023/05/06 04:46:45;;;;;;;2.40;0.80;;;;;;;;;;21002100;28;20087;-68
2023/05/06 04:56:46;;;;;;;2.88;0.88;;;;;;;;;;21001910;28;20053;-68
2023/05/06 05:06:47;;;;;;;5.47;1.52;;;;;;;;;;21000882;28;20050;-68
2023/05/06 05:16:48;;;;;;;6.53;1.45;;;;;;;;;;21000214;28;20095;-66
2023/05/06 05:26:49;;;;;;;2.33;0.80;;;;;;;;;;21000183;28;20053;-68
2023/05/06 05:36:50;;;;;;;5.82;1.42;;;;;;;;;;20999126;28;20123;-67
2023/05/06 05:46:51;;;;;;;3.35;0.82;;;;;;;;;;20998352;28;20132;-67
2023/05/06 05:56:52;;;;;;;5.25;1.75;;;;;;;;;;20996892;28;20448;-67
2023/05/06 06:06:56;;;;;;;3.97;1.00;;;;;;;;;;20996044;28;20048;-67
2023/05/06 06:16:58;;;;;;;8.13;1.00;;;;;;;;;;20996934;28;20041;-68
2023/05/06 06:26:59;;;;;;;2.55;1.00;;;;;;;;;;20995436;28;20124;-68
2023/05/06 06:37:00;;;;;;;6.75;1.30;;;;;;;;;;20996254;28;20043;-68
2023/05/06 06:47:01;;;;;;;5.60;1.48;;;;;;;;;;20994034;28;20041;-67
2023/05/06 06:57:03;;;;;;;7.90;1.20;;;;;;;;;;20994526;28;20051;-66
2023/05/06 07:07:04;;;;;;;4.65;1.23;;;;;;;;;;20996650;28;20508;-68
2023/05/06 07:17:05;;;;;;;3.22;1.58;;;;;;;;;;21008070;28;20045;-69
2023/05/06 07:27:06;;;;;;;2.97;1.40;;;;;;;;;;21007337;28;20106;-68
2023/05/06 07:37:07;;;;;;;9.23;1.67;;;;;;;;;;21007970;28;20044;-68
2023/05/06 07:47:08;;;;;;;6.28;1.50;;;;;;;;;;21007145;28;20047;-68
2023/05/06 07:57:09;;;;;;;5.93;1.83;;;;;;;;;;21006027;28;20052;-68
2023/05/06 08:07:11;;;;;;;7.18;1.45;;;;;;;;;;21005916;28;20047;-69
2023/05/06 08:17:12;;;;;;;7.07;1.02;;;;;;;;;;21004053;28;20036;-68
2023/05/06 08:27:14;;;;;;;4.88;1.50;;;;;;;;;;21003773;28;20406;-68
2023/05/06 08:37:15;;;;;;;5.18;1.52;;;;;;;;;;21001715;28;20048;-68
2023/05/06 08:47:16;;;;;;;8.48;2.92;;;;;;;;;;21002149;28;20080;-69
2023/05/06 08:57:17;;;;;;;2.92;1.38;;;;;;;;;;21001095;28;20080;-68
2023/05/06 09:07:22;;;;;;;5.30;1.50;;;;;;;;;;21000450;28;20072;-69
2023/05/06 09:17:25;;;;;;;4.65;1.98;;;;;;;;;;20999952;28;20051;-69
2023/05/06 09:27:30;;;;;;;7.53;1.75;;;;;;;;;;20998269;28;20064;-68
2023/05/06 09:37:31;;;;;;;9.15;1.73;;;;;;;;;;20997163;28;20128;-69
2023/05/06 09:47:33;;;;;;;8.35;1.92;;;;;;;;;;20997801;28;20071;-69
2023/05/06 09:57:36;;;;;;;5.15;1.67;;;;;;;;;;20997312;28;20048;-69
2023/05/06 10:07:38;;;;;;;8.00;2.40;;;;;;;;;;20995216;28;20157;-68
2023/05/06 10:17:40;;;;;;;7.28;1.75;;;;;;;;;;20996331;28;20047;-68
2023/05/06 10:27:43;;;;;;;7.35;1.50;;;;;;;;;;20994544;28;20091;-69
2023/05/06 10:37:47;;;;;;;4.25;1.75;;;;;;;;;;20994634;28;20049;-69
2023/05/06 10:47:54;;;;;;;2.95;1.30;;;;;;;;;;21005553;28;20048;-70
2023/05/06 10:57:57;;;;;;;10.23;2.42;;;;;;;;;;21009942;28;20045;-70
2023/05/06 11:08:08;;;;;;;5.00;1.25;;;;;;;;;;21008477;28;20040;-69
2023/05/06 11:18:31;;;;;;;3.78;1.00;;;;;;;;;;21007886;28;20045;-70
2023/05/06 11:28:32;;;;;;;7.97;2.88;;;;;;;;;;21006120;28;20057;-69
2023/05/06 11:39:00;;;;;;;5.22;1.23;;;;;;;;;;21007977;28;20048;-69
2023/05/06 11:49:01;;;;;;;7.30;1.00;;;;;;;;;;21004413;28;20053;-70
2023/05/06 11:59:02;;;;;;;2.78;1.20;;;;;;;;;;21005570;28;20037;-70
2023/05/06 12:09:05;;;;;;;3.75;1.00;;;;;;;;;;21003417;28;20072;-70
2023/05/06 12:19:06;;;;;;;2.70;1.13;;;;;;;;;;21004075;28;20082;-68
2023/05/06 12:29:12;;;;;;;4.03;1.05;;;;;;;;;;21001459;28;20080;-70
2023/05/06 12:39:13;;;;;;;2.63;0.52;;;;;;;;;;21001938;28;20106;-69
2023/05/06 12:49:15;;;;;;;3.85;0.77;;;;;;;;;;21000341;28;20057;-69
2023/05/06 12:59:16;;;;;;;3.40;1.20;;;;;;;;;;21001691;28;20059;-69
2023/05/06 13:09:18;;;;;;;2.90;0.80;;;;;;;;;;20999784;28;20044;-70
2023/05/06 13:19:19;;;;;;;2.70;0.80;;;;;;;;;;20998119;28;20144;-69
2023/05/06 13:29:22;;;;;;;3.47;1.15;;;;;;;;;;20997202;28;20083;-69
2023/05/06 13:39:23;;;;;;;2.97;0.77;;;;;;;;;;20998187;28;20052;-70
2023/05/06 13:49:25;;;;;;;5.63;2.75;;;;;;;;;;20997820;28;20051;-70
2023/05/06 13:59:26;;;;;;;2.53;1.40;;;;;;;;;;20996671;28;20052;-70
2023/05/06 14:09:27;;;;;;;2.33;0.80;;;;;;;;;;20996468;28;20041;-69
2023/05/06 14:19:28;;;;;;;4.22;0.60;;;;;;;;;;21001863;28;20393;-70
2023/05/06 14:29:30;;;;;;;2.95;0.93;;;;;;;;;;21012348;28;20056;-69
2023/05/06 14:39:31;;;;;;;3.00;0.75;;;;;;;;;;21010531;28;20060;-69
2023/05/06 14:49:32;;;;;;;2.05;0.70;;;;;;;;;;21008593;28;20098;-70
2023/05/06 14:59:33;;;;;;;4.55;0.90;;;;;;;;;;21008877;28;20173;-70
2023/05/06 15:09:36;;;;;;;3.63;1.02;;;;;;;;;;21007415;28;20116;-70
2023/05/06 15:19:37;;;;;;;3.08;0.93;;;;;;;;;;21008497;28;20109;-69
2023/05/06 15:29:38;;;;;;;3.03;0.82;;;;;;;;;;21008063;28;20140;-69
2023/05/06 15:39:39;;;;;;;2.38;0.70;;;;;;;;;;21006931;28;20040;-69
2023/05/06 15:49:40;;;;;;;5.05;0.85;;;;;;;;;;21005347;28;20060;-69
2023/05/06 15:59:41;;;;;;;1.83;0.40;;;;;;;;;;21004340;28;20049;-70
2023/05/06 16:09:43;;;;;;;2.65;0.60;;;;;;;;;;21003432;28;20047;-70
2023/05/06 16:19:44;;;;;;;1.65;0.63;;;;;;;;;;21001183;28;20113;-69
2023/05/06 16:29:45;;;;;;;3.78;1.98;;;;;;;;;;20999826;28;20083;-70
2023/05/06 16:39:46;;;;;;;2.17;0.65;;;;;;;;;;20999863;28;20413;-69
2023/05/06 16:49:47;;;;;;;5.53;1.40;;;;;;;;;;21000767;28;20080;-68
2023/05/06 16:59:49;;;;;;;3.13;1.00;;;;;;;;;;20996887;28;20451;-69
2023/05/06 17:09:50;;;;;;;3.67;1.65;;;;;;;;;;20995293;28;20037;-69
2023/05/06 17:19:51;;;;;;;9.55;5.05;;;;;;;;;;20996679;28;20048;-70
2023/05/06 17:29:52;;;;;;;2.58;0.60;;;;;;;;;;20991673;28;20446;-68
2023/05/06 17:39:54;;;;;;;3.17;0.70;;;;;;;;;;20994282;28;20040;-68
2023/05/06 17:49:55;;;;;;;2.72;0.60;;;;;;;;;;20994610;28;20124;-69
2023/05/06 17:59:57;;;;;;;5.13;2.55;;;;;;;;;;20994316;28;20055;-70
2023/05/06 18:09:59;;;;;;;4.57;2.08;;;;;;;;;;20993121;28;20048;-70
2023/05/06 18:20:00;;;;;;;3.05;0.80;;;;;;;;;;20992819;28;20076;-70
2023/05/06 18:30:02;;;;;;;3.83;1.27;;;;;;;;;;20993112;28;20524;-69
2023/05/06 18:40:03;;;;;;;4.32;0.90;;;;;;;;;;20991999;28;20059;-69
2023/05/06 18:50:04;;;;;;;7.40;1.45;;;;;;;;;;20991364;28;20045;-70
2023/05/06 19:00:06;;;;;;;5.20;0.93;;;;;;;;;;20994039;28;20075;-70
2023/05/06 19:10:07;;;;;;;4.72;2.30;;;;;;;;;;21006792;28;20493;-70
2023/05/06 19:20:09;;;;;;;7.05;2.70;;;;;;;;;;21008633;28;20109;-69
2023/05/06 19:30:10;;;;;;;10.00;3.30;;;;;;;;;;21007320;28;20055;-70
2023/05/06 19:40:11;;;;;;;9.88;4.28;;;;;;;;;;21005309;28;20040;-70
2023/05/06 19:50:12;;;;;;;10.25;6.40;;;;;;;;;;21005531;28;20045;-69
2023/05/06 20:00:17;;;;;;;11.30;5.72;;;;;;;;;;21004623;28;20048;-69
2023/05/06 20:10:19;;;;;;;11.07;4.20;;;;;;;;;;21004277;28;20504;-69
2023/05/06 20:20:20;;;;;;;4.40;1.20;;;;;;;;;;21002425;28;20120;-68
2023/05/06 20:30:21;;;;;;;9.65;5.28;;;;;;;;;;21002966;28;20055;-69
2023/05/06 20:40:23;;;;;;;6.35;2.72;;;;;;;;;;21002290;28;20087;-69
2023/05/06 20:50:24;;;;;;;6.32;1.67;;;;;;;;;;21001671;28;20080;-69
2023/05/06 21:00:25;;;;;;;4.32;2.55;;;;;;;;;;20998900;28;20057;-69
2023/05/06 21:10:26;;;;;;;8.07;3.45;;;;;;;;;;20999159;28;20044;-69
2023/05/06 21:20:27;;;;;;;4.78;1.70;;;;;;;;;;20997537;28;20044;-69
2023/05/06 21:30:28;;;;;;;5.47;2.72;;;;;;;;;;20996992;28;20083;-69
2023/05/06 21:40:30;;;;;;;4.07;1.65;;;;;;;;;;20996616;28;20044;-69
2023/05/06 21:50:31;;;;;;;3.38;1.05;;;;;;;;;;20996893;28;20490;-69
2023/05/06 22:00:32;;;;;;;10.55;3.03;;;;;;;;;;20996725;28;20047;-69
2023/05/06 22:10:33;;;;;;;7.72;4.47;;;;;;;;;;20996865;28;20441;-69
2023/05/06 22:20:37;;;;;;;3.63;0.63;;;;;;;;;;20997004;28;20147;-68
2023/05/06 22:30:38;;;;;;;3.80;0.63;;;;;;;;;;20996650;28;20076;-69
2023/05/06 22:40:39;;;;;;;4.50;0.85;;;;;;;;;;21002172;28;20473;-68
2023/05/06 22:50:40;;;;;;;4.20;1.58;;;;;;;;;;21012292;28;20102;-69
2023/05/06 23:00:42;;;;;;;2.47;0.93;;;;;;;;;;21011466;28;20119;-69
2023/05/06 23:10:43;;;;;;;4.10;1.20;;;;;;;;;;21010816;28;20040;-69
2023/05/06 23:20:44;;;;;;;2.72;1.00;;;;;;;;;;21010217;28;20059;-71
2023/05/06 23:30:45;;;;;;;2.53;0.70;;;;;;;;;;21008199;28;20040;-69
2023/05/06 23:40:46;;;;;;;4.15;1.48;;;;;;;;;;21008754;28;20036;-68
2023/05/06 23:50:48;;;;;;;5.78;1.23;;;;;;;;;;21007351;28;20044;-69
